createdAt,value
2022-07-26T00:00:44.937Z,18.00
2022-07-26T00:01:44.993Z,17.95
2022-07-26T00:02:48.286Z,17.92
2022-07-26T00:03:44.858Z,17.88
2022-07-26T00:04:44.856Z,17.84
2022-07-26T00:05:44.852Z,17.80
2022-07-26T00:06:44.843Z,17.77
2022-07-26T00:07:44.873Z,17.71
2022-07-26T00:08:44.877Z,17.68
2022-07-26T00:09:48.175Z,17.65
2022-07-26T00:10:44.891Z,17.61
2022-07-26T00:11:44.879Z,17.59
2022-07-26T00:12:44.888Z,17.56
2022-07-26T00:13:44.880Z,17.54
2022-07-26T00:14:44.886Z,17.54
2022-07-26T00:15:44.891Z,17.53
2022-07-26T00:16:44.929Z,17.51
2022-07-26T00:17:44.911Z,17.49
2022-07-26T00:18:44.886Z,17.47
2022-07-26T00:19:45.806Z,17.46
2022-07-26T00:21:44.933Z,17.44
2022-07-26T00:22:44.900Z,17.44
2022-07-26T00:23:44.887Z,17.45
2022-07-26T00:24:44.927Z,17.42
2022-07-26T00:25:44.905Z,17.40
2022-07-26T00:27:44.916Z,17.38
2022-07-26T00:28:44.943Z,17.39
2022-07-26T00:29:44.921Z,17.38
2022-07-26T00:30:44.913Z,17.38
2022-07-26T00:31:44.925Z,17.40
2022-07-26T00:32:44.923Z,17.40
2022-07-26T00:33:44.926Z,17.40
2022-07-26T00:34:44.930Z,17.39
2022-07-26T00:35:44.927Z,17.38
2022-07-26T00:36:44.929Z,17.39
2022-07-26T00:37:44.932Z,17.40
2022-07-26T00:38:44.916Z,17.40
2022-07-26T00:39:44.950Z,17.41
2022-07-26T00:40:44.948Z,17.41
2022-07-26T00:41:44.936Z,17.43
2022-07-26T00:42:44.933Z,17.43
2022-07-26T00:43:44.947Z,17.46
2022-07-26T00:44:45.184Z,17.47
2022-07-26T00:45:44.979Z,17.48
2022-07-26T00:46:44.937Z,17.49
2022-07-26T00:47:44.967Z,17.50
2022-07-26T00:48:44.974Z,17.53
2022-07-26T00:49:44.934Z,17.53
2022-07-26T00:50:44.953Z,17.56
2022-07-26T00:51:46.467Z,17.55
2022-07-26T00:52:44.943Z,17.57
2022-07-26T00:53:44.954Z,17.59
2022-07-26T00:54:44.993Z,17.59
2022-07-26T00:55:44.946Z,17.60
2022-07-26T00:56:44.951Z,17.63
2022-07-26T00:57:44.933Z,17.65
2022-07-26T00:58:44.926Z,17.66
2022-07-26T00:59:44.959Z,17.70
2022-07-26T01:00:44.958Z,17.71
2022-07-26T01:01:45.096Z,17.73
2022-07-26T01:02:45.027Z,17.77
2022-07-26T01:03:44.961Z,17.78
2022-07-26T01:04:44.953Z,17.79
2022-07-26T01:05:44.969Z,17.82
2022-07-26T01:06:44.967Z,17.82
2022-07-26T01:07:44.981Z,17.83
2022-07-26T01:08:44.984Z,17.85
2022-07-26T01:09:44.969Z,17.87
2022-07-26T01:10:44.965Z,17.90
2022-07-26T01:11:44.979Z,17.92
2022-07-26T01:12:44.970Z,17.92
2022-07-26T01:13:45.001Z,17.95
2022-07-26T01:14:44.989Z,17.96
2022-07-26T01:15:45.043Z,17.97
2022-07-26T01:16:44.958Z,17.98
2022-07-26T01:17:44.971Z,18.01
2022-07-26T01:18:44.981Z,18.00
2022-07-26T01:19:44.961Z,18.03
2022-07-26T01:20:45.010Z,18.04
2022-07-26T01:21:44.983Z,18.06
2022-07-26T01:22:44.981Z,18.06
2022-07-26T01:23:44.998Z,18.08
2022-07-26T01:24:44.995Z,18.08
2022-07-26T01:25:46.041Z,18.08
2022-07-26T01:26:45.020Z,18.08
2022-07-26T01:27:44.989Z,18.09
2022-07-26T01:28:44.990Z,18.09
2022-07-26T01:29:45.015Z,18.10
2022-07-26T01:30:45.008Z,18.10
2022-07-26T01:31:45.074Z,18.10
2022-07-26T01:32:44.973Z,18.11
2022-07-26T01:33:45.007Z,18.13
2022-07-26T01:34:45.004Z,18.13
2022-07-26T01:35:45.007Z,18.14
2022-07-26T01:36:45.015Z,18.14
2022-07-26T01:37:45.020Z,18.15
2022-07-26T01:38:45.008Z,18.17
2022-07-26T01:39:45.001Z,18.17
2022-07-26T01:40:45.023Z,18.18
2022-07-26T01:41:45.013Z,18.18
2022-07-26T01:42:45.000Z,18.18
2022-07-26T01:43:45.024Z,18.21
2022-07-26T01:44:45.025Z,18.21
2022-07-26T01:45:45.132Z,18.21
2022-07-26T01:46:45.005Z,18.19
2022-07-26T01:47:45.015Z,18.19
2022-07-26T01:48:45.046Z,18.20
2022-07-26T01:49:45.022Z,18.21
2022-07-26T01:50:45.006Z,18.23
2022-07-26T01:51:45.033Z,18.22
2022-07-26T01:52:45.029Z,18.21
2022-07-26T01:53:45.015Z,18.21
2022-07-26T01:54:45.031Z,18.22
2022-07-26T01:55:45.048Z,18.19
2022-07-26T01:56:45.042Z,18.23
2022-07-26T01:57:45.029Z,18.23
2022-07-26T01:58:45.047Z,18.23
2022-07-26T01:59:45.024Z,18.24
2022-07-26T02:00:45.039Z,18.24
2022-07-26T02:01:45.066Z,18.24
2022-07-26T02:02:45.115Z,18.25
2022-07-26T02:03:45.003Z,18.25
2022-07-26T02:04:45.057Z,18.24
2022-07-26T02:05:45.022Z,18.23
2022-07-26T02:06:45.035Z,18.21
2022-07-26T02:07:45.041Z,18.19
2022-07-26T02:08:45.018Z,18.17
2022-07-26T02:09:45.041Z,18.14
2022-07-26T02:10:45.071Z,18.13
2022-07-26T02:11:45.082Z,18.13
2022-07-26T02:12:45.073Z,18.12
2022-07-26T02:13:47.832Z,18.10
2022-07-26T02:14:45.055Z,18.09
2022-07-26T02:15:45.116Z,18.05
2022-07-26T02:17:32.508Z,17.96
2022-07-26T02:18:32.519Z,17.93
2022-07-26T02:19:32.546Z,17.86
2022-07-26T02:20:32.565Z,17.82
2022-07-26T02:21:32.540Z,17.78
2022-07-26T02:22:32.550Z,17.75
2022-07-26T02:23:32.543Z,17.71
2022-07-26T02:24:32.532Z,17.66
2022-07-26T02:25:32.548Z,17.63
2022-07-26T02:26:32.551Z,17.59
2022-07-26T02:27:32.556Z,17.54
2022-07-26T02:28:32.564Z,17.50
2022-07-26T02:29:32.552Z,17.48
2022-07-26T02:30:32.563Z,17.45
2022-07-26T02:31:32.688Z,17.42
2022-07-26T02:32:32.558Z,17.35
2022-07-26T02:33:32.559Z,17.29
2022-07-26T02:34:34.011Z,17.25
2022-07-26T02:35:32.613Z,17.23
2022-07-26T02:36:32.549Z,17.19
2022-07-26T02:37:32.565Z,17.17
2022-07-26T02:38:32.574Z,17.11
2022-07-26T02:39:32.557Z,17.08
2022-07-26T02:40:32.599Z,17.05
2022-07-26T02:41:32.567Z,17.03
2022-07-26T02:42:32.595Z,16.98
2022-07-26T02:43:32.564Z,16.97
2022-07-26T02:44:32.564Z,16.93
2022-07-26T02:45:32.578Z,16.91
2022-07-26T02:46:32.660Z,16.87
2022-07-26T02:47:32.602Z,16.85
2022-07-26T02:48:32.816Z,16.83
2022-07-26T02:49:32.622Z,16.81
2022-07-26T02:50:32.556Z,16.78
2022-07-26T02:51:32.601Z,16.74
2022-07-26T02:52:32.599Z,16.71
2022-07-26T02:53:32.580Z,16.69
2022-07-26T02:54:32.590Z,16.65
2022-07-26T02:55:32.698Z,16.62
2022-07-26T02:56:32.705Z,16.57
2022-07-26T02:57:45.313Z,16.54
2022-07-26T02:58:32.755Z,16.50
2022-07-26T02:59:32.747Z,16.47
2022-07-26T03:00:32.794Z,16.43
2022-07-26T03:01:32.845Z,16.40
2022-07-26T03:02:32.811Z,16.36
2022-07-26T03:03:32.778Z,16.32
2022-07-26T03:04:32.786Z,16.28
2022-07-26T03:05:32.774Z,16.25
2022-07-26T03:06:32.786Z,16.23
2022-07-26T03:07:32.776Z,16.21
2022-07-26T03:08:32.791Z,16.18
2022-07-26T03:09:32.769Z,16.14
2022-07-26T03:10:32.780Z,16.12
2022-07-26T03:11:32.803Z,16.08
2022-07-26T03:12:32.827Z,16.05
2022-07-26T03:13:32.846Z,16.02
2022-07-26T03:14:32.837Z,15.97
2022-07-26T03:15:32.946Z,15.91
2022-07-26T03:16:32.942Z,15.88
2022-07-26T03:17:32.887Z,15.86
2022-07-26T03:18:32.933Z,15.86
2022-07-26T03:19:32.939Z,15.85
2022-07-26T03:20:32.908Z,15.84
2022-07-26T03:21:32.917Z,15.85
2022-07-26T03:22:32.947Z,15.86
2022-07-26T03:23:32.940Z,15.86
2022-07-26T03:24:32.968Z,15.88
2022-07-26T03:25:32.963Z,15.88
2022-07-26T03:26:32.982Z,15.89
2022-07-26T03:27:32.981Z,15.90
2022-07-26T03:28:33.007Z,15.90
2022-07-26T03:29:33.001Z,15.89
2022-07-26T03:30:32.989Z,15.89
2022-07-26T03:31:33.039Z,15.87
2022-07-26T03:32:32.967Z,15.86
2022-07-26T03:33:32.977Z,15.85
2022-07-26T03:34:32.998Z,15.86
2022-07-26T03:35:36.460Z,15.86
2022-07-26T03:36:32.984Z,15.86
2022-07-26T03:37:45.130Z,15.88
2022-07-26T03:38:33.026Z,15.89
2022-07-26T03:39:32.994Z,15.91
2022-07-26T03:40:32.972Z,15.93
2022-07-26T03:41:32.988Z,15.95
2022-07-26T03:42:32.999Z,15.97
2022-07-26T03:43:36.321Z,16.00
2022-07-26T03:44:33.004Z,16.02
2022-07-26T03:45:33.000Z,16.04
2022-07-26T03:46:33.051Z,16.07
2022-07-26T03:47:32.997Z,16.10
2022-07-26T03:48:33.080Z,16.13
2022-07-26T03:49:33.008Z,16.15
2022-07-26T03:50:33.002Z,16.15
2022-07-26T03:51:33.007Z,16.16
2022-07-26T03:52:32.990Z,16.17
2022-07-26T03:53:33.002Z,16.17
2022-07-26T03:54:33.026Z,16.16
2022-07-26T03:55:33.030Z,16.16
2022-07-26T03:56:33.016Z,16.16
2022-07-26T03:57:32.999Z,16.15
2022-07-26T03:58:33.006Z,16.14
2022-07-26T03:59:33.019Z,16.15
2022-07-26T04:00:33.012Z,16.15
2022-07-26T04:01:33.130Z,16.18
2022-07-26T04:02:33.054Z,16.21
2022-07-26T04:03:33.023Z,16.24
2022-07-26T04:04:33.039Z,16.26
2022-07-26T04:05:33.016Z,16.29
2022-07-26T04:06:33.036Z,16.31
2022-07-26T04:07:33.047Z,16.34
2022-07-26T04:08:33.056Z,16.34
2022-07-26T04:09:33.076Z,16.36
2022-07-26T04:10:33.082Z,16.38
2022-07-26T04:11:33.086Z,16.37
2022-07-26T04:12:33.105Z,16.39
2022-07-26T04:13:33.128Z,16.39
2022-07-26T04:14:33.136Z,16.41
2022-07-26T04:15:33.132Z,16.42
2022-07-26T04:16:33.199Z,16.44
2022-07-26T04:17:33.137Z,16.46
2022-07-26T04:18:33.214Z,16.47
2022-07-26T04:19:33.217Z,16.49
2022-07-26T04:20:33.185Z,16.51
2022-07-26T04:21:33.190Z,16.55
2022-07-26T04:22:33.180Z,16.59
2022-07-26T04:23:33.180Z,16.63
2022-07-26T04:24:33.199Z,16.66
2022-07-26T04:25:38.612Z,16.70
2022-07-26T04:26:33.197Z,16.72
2022-07-26T04:27:33.200Z,16.76
2022-07-26T04:28:33.204Z,16.78
2022-07-26T04:29:33.202Z,16.81
2022-07-26T04:30:33.269Z,16.83
2022-07-26T04:31:34.957Z,16.82
2022-07-26T04:32:33.188Z,16.82
2022-07-26T04:33:33.203Z,16.81
2022-07-26T04:34:33.220Z,16.80
2022-07-26T04:35:33.201Z,16.78
2022-07-26T04:36:33.209Z,16.77
2022-07-26T04:37:33.245Z,16.77
2022-07-26T04:38:33.254Z,16.77
2022-07-26T04:39:33.238Z,16.78
2022-07-26T04:40:33.233Z,16.78
2022-07-26T04:41:33.203Z,16.79
2022-07-26T04:42:33.225Z,16.81
2022-07-26T04:43:33.228Z,16.83
2022-07-26T04:44:33.227Z,16.84
2022-07-26T04:45:33.218Z,16.84
2022-07-26T04:46:33.276Z,16.85
2022-07-26T04:47:33.279Z,16.85
2022-07-26T04:48:33.274Z,16.86
2022-07-26T04:49:33.224Z,16.85
2022-07-26T04:50:33.243Z,16.84
2022-07-26T04:51:33.212Z,16.83
2022-07-26T04:52:33.893Z,16.83
2022-07-26T04:53:33.223Z,16.81
2022-07-26T04:54:33.238Z,16.80
2022-07-26T04:55:33.240Z,16.79
2022-07-26T04:56:33.235Z,16.77
2022-07-26T04:57:33.230Z,16.77
2022-07-26T04:58:33.259Z,16.77
2022-07-26T04:59:33.298Z,16.78
2022-07-26T05:00:35.093Z,16.79
2022-07-26T05:01:33.291Z,16.81
2022-07-26T05:02:33.411Z,16.82
2022-07-26T05:03:33.228Z,16.83
2022-07-26T05:04:33.242Z,16.87
2022-07-26T05:05:33.257Z,16.91
2022-07-26T05:06:33.243Z,16.94
2022-07-26T05:07:33.250Z,16.98
2022-07-26T05:08:33.234Z,16.99
2022-07-26T05:09:33.267Z,17.03
2022-07-26T05:10:33.248Z,17.05
2022-07-26T05:11:33.248Z,17.08
2022-07-26T05:12:33.247Z,17.10
2022-07-26T05:13:33.256Z,17.14
2022-07-26T05:14:33.258Z,17.16
2022-07-26T05:15:35.122Z,17.19
2022-07-26T05:16:33.286Z,17.21
2022-07-26T05:17:34.929Z,17.21
2022-07-26T05:18:45.511Z,17.24
2022-07-26T05:19:33.280Z,17.26
2022-07-26T05:20:33.276Z,17.29
2022-07-26T05:21:33.263Z,17.31
2022-07-26T05:22:33.270Z,17.33
2022-07-26T05:23:33.261Z,17.35
2022-07-26T05:24:33.281Z,17.38
2022-07-26T05:25:33.264Z,17.43
2022-07-26T05:26:33.310Z,17.46
2022-07-26T05:27:33.282Z,17.50
2022-07-26T05:28:33.269Z,17.54
2022-07-26T05:29:33.270Z,17.58
2022-07-26T05:30:33.322Z,17.62
2022-07-26T05:31:33.289Z,17.65
2022-07-26T05:32:33.268Z,17.70
2022-07-26T05:33:33.269Z,17.72
2022-07-26T05:34:33.275Z,17.75
2022-07-26T05:35:33.270Z,17.78
2022-07-26T05:36:33.310Z,17.82
2022-07-26T05:37:33.280Z,17.84
2022-07-26T05:38:33.288Z,17.87
2022-07-26T05:39:33.290Z,17.90
2022-07-26T05:40:33.270Z,17.92
2022-07-26T05:41:33.275Z,17.96
2022-07-26T05:42:33.286Z,18.00
2022-07-26T05:43:41.126Z,18.02
2022-07-26T05:44:33.280Z,18.04
2022-07-26T05:45:33.312Z,18.08
2022-07-26T05:46:33.387Z,18.09
2022-07-26T05:47:33.299Z,18.13
2022-07-26T05:48:33.351Z,18.16
2022-07-26T05:49:39.834Z,18.18
2022-07-26T05:50:33.290Z,18.21
2022-07-26T05:51:33.312Z,18.24
2022-07-26T05:52:33.294Z,18.25
2022-07-26T05:53:33.312Z,18.28
2022-07-26T05:54:33.304Z,18.30
2022-07-26T05:55:33.297Z,18.33
2022-07-26T05:56:33.306Z,18.36
2022-07-26T05:57:33.307Z,18.38
2022-07-26T05:58:33.332Z,18.39
2022-07-26T05:59:33.325Z,18.42
2022-07-26T06:00:33.316Z,18.43
2022-07-26T06:01:33.355Z,18.45
2022-07-26T06:02:33.340Z,18.47
2022-07-26T06:03:33.312Z,18.48
2022-07-26T06:04:33.369Z,18.48
2022-07-26T06:05:33.326Z,18.50
2022-07-26T06:06:33.303Z,18.51
2022-07-26T06:07:33.308Z,18.51
2022-07-26T06:08:33.303Z,18.53
2022-07-26T06:09:33.328Z,18.57
2022-07-26T06:10:33.315Z,18.60
2022-07-26T06:11:33.323Z,18.63
2022-07-26T06:12:33.347Z,18.65
2022-07-26T06:13:33.321Z,18.66
2022-07-26T06:14:33.347Z,18.67
2022-07-26T06:15:33.328Z,18.69
2022-07-26T06:16:33.352Z,18.72
2022-07-26T06:17:33.360Z,18.75
2022-07-26T06:18:33.336Z,18.77
2022-07-26T06:19:33.351Z,18.79
2022-07-26T06:20:33.334Z,18.81
2022-07-26T06:21:33.345Z,18.83
2022-07-26T06:22:33.339Z,18.84
2022-07-26T06:23:34.418Z,18.85
2022-07-26T06:24:33.345Z,18.86
2022-07-26T06:25:33.345Z,18.86
2022-07-26T06:26:33.351Z,18.85
2022-07-26T06:27:33.405Z,18.86
2022-07-26T06:28:33.361Z,18.89
2022-07-26T06:29:33.391Z,18.92
2022-07-26T06:30:33.404Z,18.96
2022-07-26T06:31:33.472Z,19.01
2022-07-26T06:32:33.453Z,19.04
2022-07-26T06:33:33.441Z,19.09
2022-07-26T06:34:33.464Z,19.09
2022-07-26T06:35:33.456Z,19.09
2022-07-26T06:36:33.509Z,19.08
2022-07-26T06:37:33.492Z,19.05
2022-07-26T06:38:33.500Z,19.07
2022-07-26T06:39:33.519Z,19.09
2022-07-26T06:40:33.516Z,19.12
2022-07-26T06:41:33.531Z,19.16
2022-07-26T06:42:33.542Z,19.23
2022-07-26T06:43:33.601Z,19.28
2022-07-26T06:44:33.603Z,19.33
2022-07-26T06:45:33.688Z,19.37
2022-07-26T06:46:33.587Z,19.40
2022-07-26T06:47:33.627Z,19.46
2022-07-26T06:48:33.660Z,19.52
2022-07-26T06:49:33.722Z,19.58
2022-07-26T06:50:33.634Z,19.65
2022-07-26T06:51:33.657Z,19.70
2022-07-26T06:52:33.655Z,19.75
2022-07-26T06:53:33.670Z,19.83
2022-07-26T06:54:33.714Z,19.93
2022-07-26T06:55:33.689Z,20.07
2022-07-26T06:56:33.753Z,20.20
2022-07-26T06:57:33.732Z,20.38
2022-07-26T06:58:33.735Z,20.61
2022-07-26T06:59:33.745Z,20.80
2022-07-26T07:00:33.738Z,21.04
2022-07-26T07:01:57.957Z,21.25
2022-07-26T07:02:33.738Z,21.42
2022-07-26T07:03:33.748Z,21.57
2022-07-26T07:04:33.811Z,21.67
2022-07-26T07:05:33.734Z,21.83
2022-07-26T07:06:33.755Z,21.97
2022-07-26T07:07:33.742Z,22.14
2022-07-26T07:08:33.737Z,22.13
2022-07-26T07:09:33.830Z,22.13
2022-07-26T07:10:33.748Z,22.20
2022-07-26T07:11:33.745Z,22.39
2022-07-26T07:12:33.725Z,22.54
2022-07-26T07:13:33.765Z,22.66
2022-07-26T07:14:33.757Z,22.75
2022-07-26T07:15:33.754Z,22.80
2022-07-26T07:16:33.812Z,22.85
2022-07-26T07:17:33.773Z,22.87
2022-07-26T07:18:33.761Z,22.85
2022-07-26T07:19:33.759Z,22.83
2022-07-26T07:20:33.761Z,22.78
2022-07-26T07:21:33.836Z,22.85
2022-07-26T07:22:33.851Z,22.91
2022-07-26T07:23:33.754Z,22.96
2022-07-26T07:24:33.785Z,23.13
2022-07-26T07:25:33.761Z,23.27
2022-07-26T07:26:33.766Z,23.42
2022-07-26T07:27:33.796Z,23.59
2022-07-26T07:28:33.762Z,23.64
2022-07-26T07:29:33.770Z,23.50
2022-07-26T07:30:33.759Z,23.31
2022-07-26T07:31:48.723Z,23.41
2022-07-26T07:32:33.884Z,23.58
2022-07-26T07:33:43.558Z,23.74
2022-07-26T07:34:33.797Z,23.91
2022-07-26T07:35:33.775Z,24.02
2022-07-26T07:36:33.809Z,24.14
2022-07-26T07:37:52.754Z,24.30
2022-07-26T07:38:33.790Z,24.46
2022-07-26T07:39:34.987Z,24.51
2022-07-26T07:40:33.783Z,24.49
2022-07-26T07:41:33.787Z,24.36
2022-07-26T07:42:33.780Z,24.47
2022-07-26T07:43:33.785Z,24.56
2022-07-26T07:44:33.797Z,24.53
2022-07-26T07:45:33.806Z,24.55
2022-07-26T07:46:33.847Z,24.66
2022-07-26T07:47:33.798Z,24.75
2022-07-26T07:48:33.893Z,24.68
2022-07-26T07:49:33.892Z,24.71
2022-07-26T07:50:33.785Z,24.81
2022-07-26T07:51:33.785Z,24.93
2022-07-26T07:52:33.810Z,25.04
2022-07-26T07:53:33.803Z,25.12
2022-07-26T07:54:33.851Z,25.24
2022-07-26T07:55:40.972Z,25.26
2022-07-26T07:56:33.815Z,25.24
2022-07-26T07:57:33.804Z,25.21
2022-07-26T07:58:33.794Z,25.18
2022-07-26T07:59:33.821Z,25.17
2022-07-26T08:00:33.882Z,25.02
2022-07-26T08:01:39.821Z,24.67
2022-07-26T08:02:33.820Z,24.43
2022-07-26T08:03:38.473Z,24.31
2022-07-26T08:04:33.982Z,24.18
2022-07-26T08:05:33.865Z,24.23
2022-07-26T08:06:33.839Z,24.26
2022-07-26T08:07:36.272Z,24.27
2022-07-26T08:08:33.823Z,24.26
2022-07-26T08:09:34.170Z,24.31
2022-07-26T08:10:33.847Z,24.32
2022-07-26T08:11:34.303Z,24.42
2022-07-26T08:12:33.860Z,24.45
2022-07-26T08:13:33.879Z,24.71
2022-07-26T08:14:33.883Z,24.77
2022-07-26T08:15:33.913Z,24.85
2022-07-26T08:16:33.949Z,24.68
2022-07-26T08:17:33.955Z,24.90
2022-07-26T08:18:33.938Z,25.09
2022-07-26T08:19:40.832Z,25.32
2022-07-26T08:20:33.929Z,25.30
2022-07-26T08:21:33.953Z,25.30
2022-07-26T08:22:33.916Z,25.28
2022-07-26T08:23:33.937Z,25.41
2022-07-26T08:24:33.957Z,25.49
2022-07-26T08:25:33.949Z,25.49
2022-07-26T08:26:33.986Z,25.33
2022-07-26T08:27:40.597Z,25.13
2022-07-26T08:28:47.311Z,25.03
2022-07-26T08:29:33.991Z,25.12
2022-07-26T08:30:33.962Z,25.19
2022-07-26T08:31:33.981Z,25.26
2022-07-26T08:32:33.956Z,25.26
2022-07-26T08:33:33.969Z,25.20
2022-07-26T08:34:33.995Z,25.11
2022-07-26T08:35:33.974Z,25.10
2022-07-26T08:36:33.960Z,25.13
2022-07-26T08:37:33.974Z,25.09
2022-07-26T08:38:33.973Z,25.13
2022-07-26T08:39:33.985Z,25.13
2022-07-26T08:40:34.001Z,25.19
2022-07-26T08:41:33.975Z,25.11
2022-07-26T08:42:33.980Z,24.90
2022-07-26T08:43:43.768Z,24.59
2022-07-26T08:44:33.976Z,24.30
2022-07-26T08:45:34.011Z,24.07
2022-07-26T08:46:34.057Z,23.82
2022-07-26T08:47:39.874Z,23.66
2022-07-26T08:48:38.333Z,23.49
2022-07-26T08:49:34.076Z,23.43
2022-07-26T08:50:34.038Z,23.57
2022-07-26T08:51:33.980Z,23.80
2022-07-26T08:52:34.000Z,24.07
2022-07-26T08:53:33.985Z,24.31
2022-07-26T08:54:33.997Z,24.64
2022-07-26T08:55:56.827Z,24.87
2022-07-26T08:56:34.000Z,24.88
2022-07-26T08:57:34.011Z,24.74
2022-07-26T08:58:34.005Z,24.78
2022-07-26T08:59:33.995Z,24.84
2022-07-26T09:00:34.033Z,25.00
2022-07-26T09:01:34.133Z,24.94
2022-07-26T09:02:34.009Z,25.06
2022-07-26T09:03:34.047Z,25.26
2022-07-26T09:04:37.422Z,25.52
2022-07-26T09:05:34.004Z,25.86
2022-07-26T09:06:34.051Z,26.01
2022-07-26T09:07:34.019Z,26.02
2022-07-26T09:08:34.024Z,25.93
2022-07-26T09:09:34.069Z,25.77
2022-07-26T09:10:38.885Z,25.65
2022-07-26T09:11:34.023Z,25.55
2022-07-26T09:12:34.029Z,25.29
2022-07-26T09:13:34.034Z,25.03
2022-07-26T09:14:34.027Z,24.85
2022-07-26T09:15:34.058Z,24.67
2022-07-26T09:16:38.749Z,24.49
2022-07-26T09:17:34.033Z,24.40
2022-07-26T09:18:34.025Z,24.36
2022-07-26T09:19:34.038Z,24.34
2022-07-26T09:20:34.018Z,24.25
2022-07-26T09:21:34.036Z,24.23
2022-07-26T09:22:34.035Z,24.39
2022-07-26T09:23:34.033Z,24.69
2022-07-26T09:24:34.051Z,24.80
2022-07-26T09:25:34.052Z,24.54
2022-07-26T09:26:34.046Z,24.33
2022-07-26T09:27:34.043Z,24.15
2022-07-26T09:28:34.037Z,23.98
2022-07-26T09:29:34.050Z,23.86
2022-07-26T09:30:34.057Z,23.80
2022-07-26T09:31:34.136Z,23.71
2022-07-26T09:32:34.056Z,23.64
2022-07-26T09:33:34.048Z,23.57
2022-07-26T09:34:34.074Z,23.59
2022-07-26T09:35:49.802Z,23.58
2022-07-26T09:36:34.054Z,23.58
2022-07-26T09:37:34.056Z,23.63
2022-07-26T09:38:34.082Z,23.73
2022-07-26T09:39:34.379Z,23.85
2022-07-26T09:40:34.062Z,24.03
2022-07-26T09:41:34.069Z,24.28
2022-07-26T09:42:34.093Z,24.57
2022-07-26T09:43:34.096Z,24.77
2022-07-26T09:44:34.071Z,24.93
2022-07-26T09:45:34.098Z,25.06
2022-07-26T09:46:34.183Z,25.13
2022-07-26T09:47:34.094Z,25.18
2022-07-26T09:48:59.584Z,25.17
2022-07-26T09:49:40.337Z,25.16
2022-07-26T09:50:34.098Z,24.94
2022-07-26T09:51:34.092Z,24.70
2022-07-26T09:52:34.079Z,24.54
2022-07-26T09:53:34.082Z,24.42
2022-07-26T09:54:34.092Z,24.33
2022-07-26T09:55:42.469Z,24.26
2022-07-26T09:56:34.102Z,24.30
2022-07-26T09:57:34.061Z,24.40
2022-07-26T09:58:34.078Z,24.52
2022-07-26T09:59:34.101Z,24.67
2022-07-26T10:00:34.104Z,24.86
2022-07-26T10:01:34.126Z,25.10
2022-07-26T10:02:34.120Z,25.32
2022-07-26T10:03:34.211Z,25.50
2022-07-26T10:04:34.085Z,25.58
2022-07-26T10:05:34.102Z,25.67
2022-07-26T10:06:34.100Z,25.69
2022-07-26T10:07:34.114Z,25.82
2022-07-26T10:08:34.087Z,26.03
2022-07-26T10:09:34.128Z,26.11
2022-07-26T10:10:34.113Z,25.99
2022-07-26T10:11:34.097Z,25.78
2022-07-26T10:12:34.144Z,25.48
2022-07-26T10:13:34.157Z,25.02
2022-07-26T10:14:34.123Z,24.70
2022-07-26T10:15:34.150Z,24.46
2022-07-26T10:16:34.195Z,24.33
2022-07-26T10:17:35.738Z,24.24
2022-07-26T10:18:34.134Z,24.20
2022-07-26T10:19:37.818Z,24.15
2022-07-26T10:20:34.116Z,24.03
2022-07-26T10:21:34.117Z,23.98
2022-07-26T10:22:34.128Z,24.01
2022-07-26T10:23:34.123Z,24.02
2022-07-26T10:24:34.126Z,24.07
2022-07-26T10:25:34.145Z,24.08
2022-07-26T10:26:34.158Z,24.07
2022-07-26T10:27:34.108Z,24.03
2022-07-26T10:28:34.127Z,23.99
2022-07-26T10:29:34.141Z,23.91
2022-07-26T10:30:35.250Z,23.84
2022-07-26T10:31:34.337Z,23.81
2022-07-26T10:32:34.134Z,23.81
2022-07-26T10:33:34.134Z,23.84
2022-07-26T10:34:34.145Z,23.82
2022-07-26T10:35:34.143Z,23.78
2022-07-26T10:36:34.177Z,23.73
2022-07-26T10:37:34.185Z,23.70
2022-07-26T10:38:34.138Z,23.70
2022-07-26T10:39:34.145Z,23.77
2022-07-26T10:40:34.142Z,23.86
2022-07-26T10:41:34.153Z,23.96
2022-07-26T10:42:34.152Z,24.05
2022-07-26T10:43:41.970Z,24.15
2022-07-26T10:44:34.172Z,24.25
2022-07-26T10:45:34.155Z,24.41
2022-07-26T10:46:34.275Z,24.68
2022-07-26T10:47:35.531Z,25.06
2022-07-26T10:48:34.199Z,25.44
2022-07-26T10:49:34.177Z,25.64
2022-07-26T10:50:34.150Z,25.58
2022-07-26T10:51:34.155Z,25.64
2022-07-26T10:52:34.342Z,25.78
2022-07-26T10:53:34.172Z,25.75
2022-07-26T10:54:34.196Z,25.65
2022-07-26T10:55:34.163Z,25.59
2022-07-26T10:56:34.452Z,25.59
2022-07-26T10:57:34.177Z,25.50
2022-07-26T10:58:34.182Z,25.42
2022-07-26T10:59:54.676Z,25.66
2022-07-26T11:00:34.186Z,25.76
2022-07-26T11:01:34.257Z,25.82
2022-07-26T11:02:34.203Z,25.75
2022-07-26T11:03:38.474Z,25.60
2022-07-26T11:04:34.189Z,25.61
2022-07-26T11:05:34.186Z,25.55
2022-07-26T11:06:34.167Z,25.49
2022-07-26T11:07:34.192Z,25.47
2022-07-26T11:08:34.171Z,25.49
2022-07-26T11:09:34.205Z,25.54
2022-07-26T11:10:34.209Z,25.59
2022-07-26T11:11:34.160Z,25.64
2022-07-26T11:12:34.176Z,25.61
2022-07-26T11:13:34.199Z,25.56
2022-07-26T11:14:34.199Z,25.43
2022-07-26T11:15:34.270Z,24.96
2022-07-26T11:16:34.240Z,24.88
2022-07-26T11:17:34.219Z,25.05
2022-07-26T11:18:34.213Z,25.36
2022-07-26T11:19:34.214Z,25.81
2022-07-26T11:20:34.206Z,26.33
2022-07-26T11:21:34.221Z,26.71
2022-07-26T11:22:34.242Z,27.07
2022-07-26T11:23:34.228Z,27.25
2022-07-26T11:24:34.264Z,27.24
2022-07-26T11:25:34.205Z,27.25
2022-07-26T11:26:34.205Z,27.19
2022-07-26T11:27:34.302Z,27.04
2022-07-26T11:28:34.220Z,26.83
2022-07-26T11:29:38.628Z,26.68
2022-07-26T11:30:34.232Z,26.53
2022-07-26T11:31:50.582Z,26.37
2022-07-26T11:32:34.281Z,26.23
2022-07-26T11:33:34.216Z,26.14
2022-07-26T11:34:34.213Z,25.91
2022-07-26T11:35:34.217Z,25.71
2022-07-26T11:36:34.259Z,25.62
2022-07-26T11:37:34.249Z,25.58
2022-07-26T11:38:34.213Z,25.60
2022-07-26T11:39:34.274Z,25.62
2022-07-26T11:40:34.257Z,25.57
2022-07-26T11:41:35.061Z,25.57
2022-07-26T11:42:34.220Z,25.55
2022-07-26T11:43:34.245Z,25.57
2022-07-26T11:44:34.278Z,25.61
2022-07-26T11:45:34.245Z,25.54
2022-07-26T11:46:34.298Z,25.54
2022-07-26T11:47:34.225Z,25.62
2022-07-26T11:48:34.303Z,25.73
2022-07-26T11:50:00.727Z,25.81
2022-07-26T11:50:34.228Z,25.75
2022-07-26T11:51:34.283Z,25.74
2022-07-26T11:52:34.233Z,25.85
2022-07-26T11:53:34.251Z,26.06
2022-07-26T11:54:34.289Z,26.31
2022-07-26T11:55:34.286Z,26.51
2022-07-26T11:56:34.254Z,26.65
2022-07-26T11:57:34.298Z,26.65
2022-07-26T11:58:34.256Z,26.59
2022-07-26T11:59:34.265Z,26.33
2022-07-26T12:00:34.287Z,25.97
2022-07-26T12:01:34.256Z,25.72
2022-07-26T12:02:34.268Z,25.52
2022-07-26T12:03:34.297Z,25.33
2022-07-26T12:04:34.363Z,25.21
2022-07-26T12:05:34.303Z,25.11
2022-07-26T12:06:34.283Z,25.08
2022-07-26T12:07:34.273Z,24.89
2022-07-26T12:08:34.283Z,24.81
2022-07-26T12:09:34.288Z,24.77
2022-07-26T12:10:34.290Z,24.76
2022-07-26T12:11:34.324Z,24.74
2022-07-26T12:12:34.293Z,24.74
2022-07-26T12:13:39.899Z,24.81
2022-07-26T12:14:34.316Z,24.91
2022-07-26T12:15:34.350Z,25.01
2022-07-26T12:16:34.367Z,25.06
2022-07-26T12:17:35.285Z,25.07
2022-07-26T12:18:34.308Z,25.11
2022-07-26T12:19:34.308Z,25.14
2022-07-26T12:20:34.315Z,25.15
2022-07-26T12:21:34.319Z,25.21
2022-07-26T12:22:34.306Z,25.30
2022-07-26T12:23:34.437Z,25.42
2022-07-26T12:24:34.282Z,25.57
2022-07-26T12:25:34.321Z,25.67
2022-07-26T12:26:34.867Z,25.87
2022-07-26T12:27:34.305Z,26.14
2022-07-26T12:28:34.302Z,26.47
2022-07-26T12:29:34.314Z,26.76
2022-07-26T12:30:34.335Z,26.87
2022-07-26T12:31:34.442Z,27.08
2022-07-26T12:32:34.297Z,27.32
2022-07-26T12:33:34.346Z,27.49
2022-07-26T12:34:34.312Z,27.68
2022-07-26T12:35:34.329Z,27.71
2022-07-26T12:36:34.316Z,27.79
2022-07-26T12:37:40.359Z,27.87
2022-07-26T12:38:34.347Z,27.95
2022-07-26T12:39:34.320Z,28.10
2022-07-26T12:40:34.358Z,28.22
2022-07-26T12:41:34.355Z,28.34
2022-07-26T12:42:34.727Z,28.42
2022-07-26T12:43:34.345Z,28.39
2022-07-26T12:44:34.334Z,28.14
2022-07-26T12:45:34.354Z,27.95
2022-07-26T12:46:34.491Z,27.75
2022-07-26T12:47:34.336Z,27.57
2022-07-26T12:48:34.357Z,27.29
2022-07-26T12:49:34.401Z,27.25
2022-07-26T12:50:34.343Z,27.17
2022-07-26T12:51:34.357Z,27.10
2022-07-26T12:52:34.325Z,27.19
2022-07-26T12:53:34.340Z,27.46
2022-07-26T12:54:34.362Z,27.83
2022-07-26T12:55:34.344Z,28.29